Aces Wild — WDE3369 — position and weather

sailwx.info

Track history (hours):
 
Tides and Currents Weather Stations Pressure Air Temp Water Temp Dewpoint Dewpoint Depression Visibility Wind Speed Wind Dir Waves Ship Positions

Aces Wild

Owner: C & C Boats, Inc., Huntington Beach, CA. More information available from US FCC via Universal Licensing System and Coast Guard Vessel Documentation Center.

Last reported at 2017-Sep-22 01:59 UTC. Time now 2017-Oct-19 05:45 UTC.
Position N 34°23' W 120°02'.
Warning: this ship's position is 27 days out of date.

Length 34 m.

Type: Passenger vessel. MMSI: 367338120.

Date/timePositionNaut miles runAvg speedWind from/ knotsBaromVisibWave heightAir tempDewpointWater temp
2017-Sep-22 01:59N 34°23' W 120°02'612.1
2017-Sep-22 01:29N 34°26' W 119°55'6 9.5
2017-Sep-22 00:53N 34°23' W 120°02'511.5
2017-Sep-22 00:29N 34°23' W 120°07'2 4.9
2017-Sep-22 00:00N 34°23' W 120°10'611.5
2017-Sep-21 23:30N 34°21' W 120°17'4 8.2
2017-Sep-21 22:59N 34°22' W 120°12'2 3.7
2017-Sep-21 22:30N 34°22' W 120°10'0 0.0
2017-Sep-21 21:58N 34°22' W 120°10'0 0.1
2017-Sep-21 21:30N 34°22' W 120°10'612.0
2017-Sep-21 21:00N 34°21' W 120°17'612.6
2017-Sep-21 20:30N 34°23' W 120°09'2 4.0
2017-Sep-21 20:00N 34°23' W 120°07'0 0.0
2017-Sep-21 19:30N 34°23' W 120°07'0 0.1
2017-Sep-21 18:58N 34°23' W 120°07'0 0.0
2017-Sep-21 18:30N 34°23' W 120°07'0 0.0
2017-Sep-21 17:52N 34°23' W 120°07'0 0.0
2017-Sep-21 17:30N 34°23' W 120°07'0 0.0
2017-Sep-21 16:59N 34°23' W 120°07'0 0.0
2017-Sep-21 16:29N 34°23' W 120°07'0 0.0
2017-Sep-21 15:58N 34°23' W 120°07'0 0.0
2017-Sep-21 15:30N 34°23' W 120°07'4 7.7
2017-Sep-21 14:59N 34°22' W 120°12'4 9.2
2017-Sep-21 14:30N 34°21' W 120°17'611.2
2017-Sep-21 13:59N 34°23' W 120°10'3 5.4
2017-Sep-21 13:30N 34°23' W 120°07'0 0.0
2017-Sep-21 12:57N 34°23' W 120°07'0 0.0
2017-Sep-21 12:28N 34°23' W 120°07'0 0.0
2017-Sep-21 11:58N 34°23' W 120°07'0 0.0
2017-Sep-21 11:30N 34°23' W 120°07'0 0.0
2017-Sep-21 10:58N 34°23' W 120°07'0 0.1
2017-Sep-21 10:30N 34°23' W 120°07'0 0.1
2017-Sep-21 10:00N 34°23' W 120°07'0 0.0
2017-Sep-21 09:29N 34°23' W 120°07'0 0.0
2017-Sep-21 09:00N 34°23' W 120°07'0 0.0
2017-Sep-21 08:30N 34°23' W 120°07'0 0.1
2017-Sep-21 07:59N 34°23' W 120°07'0 0.1
2017-Sep-21 07:30N 34°23' W 120°07'0 0.0
2017-Sep-21 06:59N 34°23' W 120°07'0 0.0
2017-Sep-21 06:28N 34°23' W 120°07'0 0.0
2017-Sep-21 06:00N 34°23' W 120°07'0 0.0
2017-Sep-21 05:29N 34°23' W 120°07'0 0.0
2017-Sep-21 05:00N 34°23' W 120°07'0 0.1
2017-Sep-21 04:28N 34°23' W 120°07'0 0.0
2017-Sep-21 04:00N 34°23' W 120°07'0 0.0
2017-Sep-21 03:29N 34°23' W 120°07'0 0.0
2017-Sep-21 02:59N 34°23' W 120°07'0 0.0
2017-Sep-21 02:28N 34°23' W 120°07'0 0.0
2017-Sep-21 02:00N 34°23' W 120°07'0 0.0
2017-Sep-21 01:27N 34°23' W 120°07'0 0.0
2017-Sep-21 01:00N 34°23' W 120°07'0 0.3
2017-Sep-21 00:30N 34°24' W 120°07'611.6
2017-Sep-21 00:00N 34°24' W 120°00'4 7.6
2017-Sep-20 23:26N 34°26' W 119°55'0 0.0
2017-Sep-20 21:57N 34°26' W 119°55'0 0.0
2017-Sep-20 21:18N 34°26' W 119°55'0 0.0
2017-Sep-20 20:57N 34°26' W 119°55'0 0.0
2017-Sep-20 20:21N 34°26' W 119°55'0 0.0
2017-Sep-20 19:45N 34°26' W 119°55'0 0.0
2017-Sep-20 19:24N 34°26' W 119°55'0 0.0
2017-Sep-20 19:00N 34°26' W 119°55'0 0.0
2017-Sep-20 18:18N 34°26' W 119°55'0 0.0
2017-Sep-20 17:53N 34°26' W 119°55'0 0.0
2017-Sep-20 17:29N 34°26' W 119°55'0 0.0
2017-Sep-20 16:59N 34°26' W 119°55'0 0.4
2017-Sep-20 16:29N 34°26' W 119°55'713.2
2017-Sep-20 15:57N 34°24' W 120°04'3 6.5
2017-Sep-20 15:30N 34°23' W 120°07'3 4.9
2017-Sep-20 15:00N 34°23' W 120°10'0 0.3
2017-Sep-20 14:00N 34°23' W 120°10'3 5.5
2017-Sep-20 13:30N 34°23' W 120°07'0 0.0
2017-Sep-20 12:59N 34°23' W 120°07'0 0.0
2017-Sep-20 12:29N 34°23' W 120°07'0 0.0
2017-Sep-20 11:59N 34°23' W 120°07'0 0.0
2017-Sep-20 11:29N 34°23' W 120°07'0 0.0
2017-Sep-20 10:57N 34°23' W 120°07'0 0.0
2017-Sep-20 10:29N 34°23' W 120°07'0 0.0
2017-Sep-20 09:59N 34°23' W 120°07'0 0.0
2017-Sep-20 09:29N 34°23' W 120°07'0 0.0
2017-Sep-20 08:59N 34°23' W 120°07'0 0.0
2017-Sep-20 08:29N 34°23' W 120°07'0 0.0
2017-Sep-20 07:59N 34°23' W 120°07'0 0.0
2017-Sep-20 07:27N 34°23' W 120°07'0 0.0
2017-Sep-20 06:59N 34°23' W 120°07'0 0.0
2017-Sep-20 06:29N 34°23' W 120°07'0 0.0
2017-Sep-20 06:00N 34°23' W 120°07'0 0.0
2017-Sep-20 05:29N 34°23' W 120°07'0 0.0
2017-Sep-20 04:58N 34°23' W 120°07'0 0.1
2017-Sep-20 04:25N 34°23' W 120°07'0 0.0
2017-Sep-20 03:55N 34°23' W 120°07'0 0.0
2017-Sep-20 03:22N 34°23' W 120°07'0 0.0
2017-Sep-20 02:58N 34°23' W 120°07'0 0.0
2017-Sep-20 02:30N 34°23' W 120°07'0 0.0
2017-Sep-20 02:00N 34°23' W 120°07'0 0.0
2017-Sep-20 01:29N 34°23' W 120°07'0 0.0
2017-Sep-20 00:58N 34°23' W 120°07'0 0.0
2017-Sep-20 00:28N 34°23' W 120°07'0 0.5
2017-Sep-19 23:58N 34°23' W 120°07'  
Track history (hours):
 
Tides and Currents Weather Stations Pressure Air Temp Water Temp Dewpoint Dewpoint Depression Visibility Wind Speed Wind Dir Waves Ship Positions

Aces Wild

Owner: C & C Boats, Inc., Huntington Beach, CA. More information available from US FCC via Universal Licensing System and Coast Guard Vessel Documentation Center.

Last reported at 2017-Sep-22 01:59 UTC. Time now 2017-Oct-19 05:45 UTC.
Position N 34°23' W 120°02'.
Warning: this ship's position is 27 days out of date.

Length 34 m.

Type: Passenger vessel. MMSI: 367338120.

Date/timePositionNaut miles runAvg speedWind from/ knotsBaromVisibWave heightAir tempDewpointWater temp
2017-Sep-22 01:59N 34°23' W 120°02'612.1
2017-Sep-22 01:29N 34°26' W 119°55'6 9.5
2017-Sep-22 00:53N 34°23' W 120°02'511.5
2017-Sep-22 00:29N 34°23' W 120°07'2 4.9
2017-Sep-22 00:00N 34°23' W 120°10'611.5
2017-Sep-21 23:30N 34°21' W 120°17'4 8.2
2017-Sep-21 22:59N 34°22' W 120°12'2 3.7
2017-Sep-21 22:30N 34°22' W 120°10'0 0.0
2017-Sep-21 21:58N 34°22' W 120°10'0 0.1
2017-Sep-21 21:30N 34°22' W 120°10'612.0
2017-Sep-21 21:00N 34°21' W 120°17'612.6
2017-Sep-21 20:30N 34°23' W 120°09'2 4.0
2017-Sep-21 20:00N 34°23' W 120°07'0 0.0
2017-Sep-21 19:30N 34°23' W 120°07'0 0.1
2017-Sep-21 18:58N 34°23' W 120°07'0 0.0
2017-Sep-21 18:30N 34°23' W 120°07'0 0.0
2017-Sep-21 17:52N 34°23' W 120°07'0 0.0
2017-Sep-21 17:30N 34°23' W 120°07'0 0.0
2017-Sep-21 16:59N 34°23' W 120°07'0 0.0
2017-Sep-21 16:29N 34°23' W 120°07'0 0.0
2017-Sep-21 15:58N 34°23' W 120°07'0 0.0
2017-Sep-21 15:30N 34°23' W 120°07'4 7.7
2017-Sep-21 14:59N 34°22' W 120°12'4 9.2
2017-Sep-21 14:30N 34°21' W 120°17'611.2
2017-Sep-21 13:59N 34°23' W 120°10'3 5.4
2017-Sep-21 13:30N 34°23' W 120°07'0 0.0
2017-Sep-21 12:57N 34°23' W 120°07'0 0.0
2017-Sep-21 12:28N 34°23' W 120°07'0 0.0
2017-Sep-21 11:58N 34°23' W 120°07'0 0.0
2017-Sep-21 11:30N 34°23' W 120°07'0 0.0
2017-Sep-21 10:58N 34°23' W 120°07'0 0.1
2017-Sep-21 10:30N 34°23' W 120°07'0 0.1
2017-Sep-21 10:00N 34°23' W 120°07'0 0.0
2017-Sep-21 09:29N 34°23' W 120°07'0 0.0
2017-Sep-21 09:00N 34°23' W 120°07'0 0.0
2017-Sep-21 08:30N 34°23' W 120°07'0 0.1
2017-Sep-21 07:59N 34°23' W 120°07'0 0.1
2017-Sep-21 07:30N 34°23' W 120°07'0 0.0
2017-Sep-21 06:59N 34°23' W 120°07'0 0.0
2017-Sep-21 06:28N 34°23' W 120°07'0 0.0
2017-Sep-21 06:00N 34°23' W 120°07'0 0.0
2017-Sep-21 05:29N 34°23' W 120°07'0 0.0
2017-Sep-21 05:00N 34°23' W 120°07'0 0.1
2017-Sep-21 04:28N 34°23' W 120°07'0 0.0
2017-Sep-21 04:00N 34°23' W 120°07'0 0.0
2017-Sep-21 03:29N 34°23' W 120°07'0 0.0
2017-Sep-21 02:59N 34°23' W 120°07'0 0.0
2017-Sep-21 02:28N 34°23' W 120°07'0 0.0
2017-Sep-21 02:00N 34°23' W 120°07'0 0.0
2017-Sep-21 01:27N 34°23' W 120°07'0 0.0
2017-Sep-21 01:00N 34°23' W 120°07'0 0.3
2017-Sep-21 00:30N 34°24' W 120°07'611.6
2017-Sep-21 00:00N 34°24' W 120°00'4 7.6
2017-Sep-20 23:26N 34°26' W 119°55'0 0.0
2017-Sep-20 21:57N 34°26' W 119°55'0 0.0
2017-Sep-20 21:18N 34°26' W 119°55'0 0.0
2017-Sep-20 20:57N 34°26' W 119°55'0 0.0
2017-Sep-20 20:21N 34°26' W 119°55'0 0.0
2017-Sep-20 19:45N 34°26' W 119°55'0 0.0
2017-Sep-20 19:24N 34°26' W 119°55'0 0.0
2017-Sep-20 19:00N 34°26' W 119°55'0 0.0
2017-Sep-20 18:18N 34°26' W 119°55'0 0.0
2017-Sep-20 17:53N 34°26' W 119°55'0 0.0
2017-Sep-20 17:29N 34°26' W 119°55'0 0.0
2017-Sep-20 16:59N 34°26' W 119°55'0 0.4
2017-Sep-20 16:29N 34°26' W 119°55'713.2
2017-Sep-20 15:57N 34°24' W 120°04'3 6.5
2017-Sep-20 15:30N 34°23' W 120°07'3 4.9
2017-Sep-20 15:00N 34°23' W 120°10'0 0.3
2017-Sep-20 14:00N 34°23' W 120°10'3 5.5
2017-Sep-20 13:30N 34°23' W 120°07'0 0.0
2017-Sep-20 12:59N 34°23' W 120°07'0 0.0
2017-Sep-20 12:29N 34°23' W 120°07'0 0.0
2017-Sep-20 11:59N 34°23' W 120°07'0 0.0
2017-Sep-20 11:29N 34°23' W 120°07'0 0.0
2017-Sep-20 10:57N 34°23' W 120°07'0 0.0
2017-Sep-20 10:29N 34°23' W 120°07'0 0.0
2017-Sep-20 09:59N 34°23' W 120°07'0 0.0
2017-Sep-20 09:29N 34°23' W 120°07'0 0.0
2017-Sep-20 08:59N 34°23' W 120°07'0 0.0
2017-Sep-20 08:29N 34°23' W 120°07'0 0.0
2017-Sep-20 07:59N 34°23' W 120°07'0 0.0
2017-Sep-20 07:27N 34°23' W 120°07'0 0.0
2017-Sep-20 06:59N 34°23' W 120°07'0 0.0
2017-Sep-20 06:29N 34°23' W 120°07'0 0.0
2017-Sep-20 06:00N 34°23' W 120°07'0 0.0
2017-Sep-20 05:29N 34°23' W 120°07'0 0.0
2017-Sep-20 04:58N 34°23' W 120°07'0 0.1
2017-Sep-20 04:25N 34°23' W 120°07'0 0.0
2017-Sep-20 03:55N 34°23' W 120°07'0 0.0
2017-Sep-20 03:22N 34°23' W 120°07'0 0.0
2017-Sep-20 02:58N 34°23' W 120°07'0 0.0
2017-Sep-20 02:30N 34°23' W 120°07'0 0.0
2017-Sep-20 02:00N 34°23' W 120°07'0 0.0
2017-Sep-20 01:29N 34°23' W 120°07'0 0.0
2017-Sep-20 00:58N 34°23' W 120°07'0 0.0
2017-Sep-20 00:28N 34°23' W 120°07'0 0.5
2017-Sep-19 23:58N 34°23' W 120°07'  

Dump ship's entire track history